Tropical Cyclones
[Index]
Main Index Home Page Stock Weather Photos Extreme Storms Discussion Storm News and Storm Chasing Reports Tropical Cyclones / Hurricanes / Typhoons Weather Data and Links Wild Fires / Bushfires Weather Observation Techniques Weather Picture Catalogue Tornado Pictures and Reports Stock Video Footage and DVDs for sale
Season 1960-1961 Tropical Cyclone 196115 Track Map
Season 1960-1961 Summaries: [BoM-AU] [JTWC-AU] [JTWC-SIO] [JTWC-SPAC] [JTWC-SH]
<<- Previous TC | JTWC 1960-1961 Season | Next TC ->>

click for intensity scale information  Lat/long Grid: Show Hide

 Date Labels: Show Hide

Joint Typhoon Warning Centre Cyclone Data

Name: 196115
Number: 409 / 6115

29 Jan 1961 00:00 UTC to 05 Feb 1961 18:00 UTC

    date/time    lat    long     hPa   cat  kts
1961-01-29 00   14.2   161.3                              
1961-01-29 06   14.4   160.7                              
1961-01-29 12   14.6   160.4                              
1961-01-29 18   15.0   160.2                              
1961-01-30 00   15.4   160.0                              
1961-01-30 06   15.8   159.7                              
1961-01-30 12   16.3   159.4                              
1961-01-30 18   16.6   159.1                              
1961-01-31 00   17.0   158.8                              
1961-01-31 06   17.5   158.5                              
1961-01-31 12   18.1   158.3                              
1961-01-31 18   18.6   158.2                              
1961-02-01 00   19.1   158.1                              
1961-02-01 06   20.0   157.8                              
1961-02-01 12   21.2   157.6                              
1961-02-01 18   22.6   157.8                              
1961-02-02 00   23.9   158.0                              
1961-02-02 06   24.8   158.1                              
1961-02-02 12   25.6   158.2                              
1961-02-02 18   26.2   158.6                              
1961-02-03 00   27.0   159.0                              
1961-02-03 06   28.0   159.5                              
1961-02-03 12   29.2   160.1                              
1961-02-03 18   30.4   160.9                              
1961-02-04 00   31.6   162.3                              
1961-02-04 06   32.8   164.4                              
1961-02-04 12   34.1   166.5                              
1961-02-04 18   36.1   168.6                              
1961-02-05 00   37.5   169.8                              
1961-02-05 06   38.1   169.7                              
1961-02-05 12   38.5   169.1                              
1961-02-05 18   38.9   168.6                              
Winds are 1-min average.

Tropical cyclone tracks developed by Michael Bath using data from the Joint Typhoon Warning Centre Best Tracks and Google Maps.


[Australian Severe Weather index] [Copyright Notice] [Email Contacts] [Search This Site] [Privacy Policy]
Document: tropical_cyclone_196115.htm Updated: 18 September 2016